createdAt,value
2022-10-20T00:02:12.841Z,72.75
2022-10-20T00:04:41.997Z,72.90
2022-10-20T00:07:13.316Z,73.31
2022-10-20T00:09:43.281Z,73.52
2022-10-20T00:12:13.892Z,73.86
2022-10-20T00:14:43.016Z,74.15
2022-10-20T00:17:13.084Z,74.40
2022-10-20T00:19:46.334Z,74.81
2022-10-20T00:22:16.673Z,75.33
2022-10-20T00:24:46.996Z,75.68
2022-10-20T00:27:15.944Z,76.30
2022-10-20T00:29:49.252Z,76.48
2022-10-20T00:32:18.836Z,76.50
2022-10-20T00:34:48.508Z,76.50
2022-10-20T00:37:18.339Z,76.68
2022-10-20T00:39:48.474Z,76.75
2022-10-20T00:42:21.910Z,76.74
2022-10-20T00:44:59.675Z,76.42
2022-10-20T00:47:59.956Z,76.39
2022-10-20T00:50:36.816Z,76.46
2022-10-20T00:53:06.499Z,76.47
2022-10-20T00:55:39.993Z,76.40
2022-10-20T00:58:09.584Z,76.39
2022-10-20T01:00:40.135Z,76.47
2022-10-20T01:03:15.483Z,76.28
2022-10-20T01:05:45.550Z,76.09
2022-10-20T01:08:14.500Z,75.71
2022-10-20T01:11:04.081Z,75.84
2022-10-20T01:13:55.243Z,75.99
2022-10-20T01:16:49.695Z,75.86
2022-10-20T01:19:35.117Z,75.96
2022-10-20T01:22:28.193Z,75.72
2022-10-20T01:25:24.632Z,75.74
2022-10-20T01:27:59.460Z,75.58
2022-10-20T01:30:29.794Z,75.63
2022-10-20T01:33:19.892Z,75.60
2022-10-20T01:36:06.436Z,75.50
2022-10-20T01:38:40.290Z,75.30
2022-10-20T01:41:17.771Z,75.18
2022-10-20T01:43:47.481Z,75.06
2022-10-20T01:46:17.048Z,74.84
2022-10-20T01:48:47.446Z,75.10
2022-10-20T01:51:17.479Z,75.14
2022-10-20T01:53:48.962Z,75.07
2022-10-20T01:56:22.745Z,75.34
2022-10-20T01:58:59.810Z,75.48
2022-10-20T02:01:50.203Z,75.58
2022-10-20T02:04:21.886Z,75.47
2022-10-20T02:07:08.259Z,75.38
2022-10-20T02:09:47.465Z,75.38
2022-10-20T02:12:25.539Z,75.26
2022-10-20T02:14:54.943Z,75.07
2022-10-20T02:17:23.939Z,75.02
2022-10-20T02:19:53.460Z,74.68
2022-10-20T02:22:22.682Z,74.66
2022-10-20T02:24:52.853Z,74.52
2022-10-20T02:27:27.234Z,74.33
2022-10-20T02:30:08.631Z,74.38
2022-10-20T02:32:41.060Z,74.61
2022-10-20T02:35:14.905Z,74.73
2022-10-20T02:37:45.040Z,74.90
2022-10-20T02:40:14.883Z,75.06
2022-10-20T02:42:45.275Z,75.07
2022-10-20T02:45:14.503Z,74.72
2022-10-20T02:47:43.439Z,74.74
2022-10-20T02:50:12.530Z,74.72
2022-10-20T02:52:42.817Z,74.62
2022-10-20T02:55:11.763Z,74.76
2022-10-20T02:57:42.800Z,74.67
2022-10-20T03:00:13.974Z,74.58
2022-10-20T03:02:42.995Z,74.57
2022-10-20T03:05:13.054Z,74.76
2022-10-20T03:07:41.939Z,74.96
2022-10-20T03:10:11.984Z,75.05
2022-10-20T03:12:42.360Z,75.00
2022-10-20T03:15:12.162Z,74.96
2022-10-20T03:17:44.122Z,74.95
2022-10-20T03:20:14.136Z,74.99
2022-10-20T03:22:44.336Z,74.81
2022-10-20T03:25:14.848Z,74.74
2022-10-20T03:27:44.263Z,74.72
2022-10-20T03:30:14.586Z,74.76
2022-10-20T03:32:44.513Z,74.79
2022-10-20T03:35:13.559Z,74.94
2022-10-20T03:37:43.516Z,74.97
2022-10-20T03:40:12.484Z,74.87
2022-10-20T03:42:42.853Z,75.08
2022-10-20T03:45:15.049Z,74.92
2022-10-20T03:47:44.892Z,74.91
2022-10-20T03:50:17.738Z,74.95
2022-10-20T03:52:48.943Z,74.96
2022-10-20T03:55:19.552Z,74.97
2022-10-20T03:57:49.714Z,74.81
2022-10-20T04:00:20.394Z,74.76
2022-10-20T04:02:51.479Z,74.73
2022-10-20T04:05:21.548Z,74.68
2022-10-20T04:07:51.035Z,74.74
2022-10-20T04:10:20.575Z,74.71
2022-10-20T04:12:51.366Z,74.74
2022-10-20T04:15:23.713Z,74.84
2022-10-20T04:17:59.807Z,74.83
2022-10-20T04:20:30.623Z,74.95
2022-10-20T04:23:00.012Z,75.21
2022-10-20T04:25:30.161Z,75.23
2022-10-20T04:28:00.400Z,75.42
2022-10-20T04:30:29.832Z,75.35
2022-10-20T04:33:01.430Z,75.30
2022-10-20T04:35:30.891Z,75.18
2022-10-20T04:38:00.904Z,75.24
2022-10-20T04:40:31.197Z,75.21
2022-10-20T04:43:01.081Z,75.29
2022-10-20T04:45:32.295Z,75.32
2022-10-20T04:48:04.489Z,75.16
2022-10-20T04:50:34.837Z,75.25
2022-10-20T04:53:10.203Z,75.20
2022-10-20T04:55:41.504Z,75.32
2022-10-20T04:58:11.623Z,75.32
2022-10-20T05:00:40.379Z,75.45
2022-10-20T05:05:41.410Z,75.35
2022-10-20T05:08:11.401Z,75.43
2022-10-20T05:10:41.266Z,75.43
2022-10-20T05:13:10.521Z,75.51
2022-10-20T05:15:39.968Z,75.64
2022-10-20T05:18:10.881Z,75.82
2022-10-20T05:21:07.211Z,75.64
2022-10-20T05:23:14.123Z,75.83
2022-10-20T05:25:45.395Z,75.90
2022-10-20T05:28:15.395Z,76.02
2022-10-20T05:30:45.498Z,75.91
2022-10-20T05:33:15.356Z,75.89
2022-10-20T05:35:45.472Z,76.16
2022-10-20T05:38:15.711Z,76.53
2022-10-20T05:40:45.345Z,76.85
2022-10-20T05:43:17.416Z,77.29
2022-10-20T05:45:49.489Z,77.38
2022-10-20T05:48:19.272Z,77.44
2022-10-20T05:50:49.070Z,77.43
2022-10-20T05:53:18.614Z,77.54
2022-10-20T05:55:47.473Z,77.57
2022-10-20T05:58:23.287Z,78.11
2022-10-20T06:00:53.859Z,78.30
2022-10-20T06:03:26.058Z,78.18
2022-10-20T06:05:59.673Z,78.08
2022-10-20T06:08:32.841Z,78.39
2022-10-20T06:11:05.477Z,78.61
2022-10-20T06:13:34.969Z,78.80
2022-10-20T06:16:11.118Z,78.69
2022-10-20T06:18:42.846Z,79.01
2022-10-20T06:21:21.655Z,79.07
2022-10-20T06:23:51.584Z,79.35
2022-10-20T06:26:24.221Z,79.56
2022-10-20T06:29:02.764Z,79.69
2022-10-20T06:31:35.496Z,79.85
2022-10-20T06:34:06.036Z,79.99
2022-10-20T06:36:36.865Z,80.12
2022-10-20T06:39:07.365Z,80.39
2022-10-20T06:41:38.030Z,80.37
2022-10-20T06:44:07.634Z,80.38
2022-10-20T06:46:39.087Z,80.24
2022-10-20T06:49:08.395Z,80.28
2022-10-20T07:03:05.020Z,79.42
2022-10-20T07:05:36.479Z,79.35
2022-10-20T07:08:08.025Z,79.14
2022-10-20T07:10:39.304Z,79.43
2022-10-20T07:13:10.022Z,79.50
2022-10-20T07:15:46.638Z,79.64
2022-10-20T07:18:15.329Z,79.72
2022-10-20T07:20:45.028Z,79.74
2022-10-20T07:23:15.536Z,79.78
2022-10-20T07:25:44.668Z,79.74
2022-10-20T07:28:13.688Z,79.69
2022-10-20T07:30:43.202Z,79.82
2022-10-20T07:33:12.916Z,79.87
2022-10-20T07:35:43.676Z,79.82
2022-10-20T07:38:14.114Z,79.98
2022-10-20T07:40:43.383Z,80.27
2022-10-20T07:43:13.507Z,80.39
2022-10-20T07:45:42.727Z,80.28
2022-10-20T07:48:12.587Z,80.31
2022-10-20T07:50:43.054Z,80.36
2022-10-20T07:53:14.604Z,80.53
2022-10-20T07:55:47.406Z,80.52
2022-10-20T07:58:16.646Z,80.42
2022-10-20T08:00:46.808Z,80.67
2022-10-20T08:03:17.367Z,80.65
2022-10-20T08:05:47.761Z,80.42
2022-10-20T08:08:17.312Z,80.32
2022-10-20T08:10:48.016Z,80.59
2022-10-20T08:13:17.506Z,80.51
2022-10-20T08:15:47.868Z,80.60
2022-10-20T08:18:21.866Z,80.65
2022-10-20T08:20:52.872Z,80.67
2022-10-20T08:23:23.301Z,80.87
2022-10-20T08:25:56.474Z,80.86
2022-10-20T08:28:27.093Z,80.91
2022-10-20T08:30:57.381Z,80.53
2022-10-20T08:33:28.107Z,80.03
2022-10-20T08:36:05.315Z,80.08
2022-10-20T08:38:36.056Z,80.10
2022-10-20T08:41:16.290Z,80.11
2022-10-20T08:43:46.091Z,80.13
2022-10-20T08:48:49.836Z,80.52
2022-10-20T08:51:24.872Z,80.55
2022-10-20T08:53:56.903Z,80.57
2022-10-20T08:56:28.595Z,80.55
2022-10-20T08:58:59.071Z,80.69
2022-10-20T09:01:33.123Z,80.59
2022-10-20T09:04:34.399Z,80.45
2022-10-20T09:07:12.943Z,80.38
2022-10-20T09:09:42.546Z,80.44
2022-10-20T09:12:14.961Z,80.28
2022-10-20T09:14:44.940Z,80.16
2022-10-20T09:17:16.780Z,80.02
2022-10-20T09:19:49.955Z,80.03
2022-10-20T09:22:19.906Z,80.23
2022-10-20T09:24:51.104Z,80.06
2022-10-20T09:27:31.270Z,80.12
2022-10-20T09:30:19.826Z,80.18
2022-10-20T09:32:49.149Z,79.93
2022-10-20T09:35:33.214Z,79.81
2022-10-20T09:38:29.306Z,79.56
2022-10-20T09:41:04.854Z,79.75
2022-10-20T09:43:34.479Z,80.03
2022-10-20T09:46:08.588Z,80.22
2022-10-20T09:48:46.546Z,80.24
2022-10-20T09:51:26.892Z,80.08
2022-10-20T09:54:02.370Z,80.08
2022-10-20T09:56:37.238Z,80.16
2022-10-20T09:59:32.713Z,80.11
2022-10-20T10:02:17.563Z,80.14
2022-10-20T10:04:50.963Z,80.26
2022-10-20T10:07:30.767Z,80.15
2022-10-20T10:10:09.943Z,79.89
2022-10-20T10:12:41.412Z,79.59
2022-10-20T10:15:30.532Z,79.34
2022-10-20T10:18:01.782Z,79.31
2022-10-20T10:20:37.698Z,79.23
2022-10-20T10:23:22.279Z,78.96
2022-10-20T10:25:51.359Z,79.15
2022-10-20T10:28:30.797Z,79.25
2022-10-20T10:31:18.669Z,79.21
2022-10-20T10:33:49.148Z,78.95
2022-10-20T10:36:23.687Z,78.70
2022-10-20T10:38:54.607Z,78.68
2022-10-20T10:44:43.971Z,78.48
2022-10-20T10:48:08.620Z,78.05
2022-10-20T10:50:59.442Z,77.54
2022-10-20T10:54:11.676Z,77.05
2022-10-20T10:56:48.803Z,76.69
2022-10-20T10:59:36.483Z,75.61
2022-10-20T11:02:44.011Z,75.43
2022-10-20T11:05:30.247Z,75.41
2022-10-20T11:08:13.047Z,75.52
2022-10-20T11:11:05.412Z,75.65
2022-10-20T11:14:00.740Z,75.84
2022-10-20T11:17:14.081Z,75.77
2022-10-20T11:20:30.910Z,76.24
2022-10-20T11:26:17.947Z,76.82
2022-10-20T11:28:48.446Z,76.54
2022-10-20T11:31:28.802Z,77.10
2022-10-20T11:34:05.517Z,77.35
2022-10-20T11:36:41.812Z,77.22
2022-10-20T11:39:28.483Z,77.59
2022-10-20T11:42:01.337Z,78.04
2022-10-20T11:44:37.833Z,78.09
2022-10-20T11:47:10.382Z,77.96
2022-10-20T11:49:40.281Z,78.12
2022-10-20T11:53:03.601Z,78.19
2022-10-20T11:55:47.721Z,78.33
2022-10-20T11:58:36.839Z,78.67
2022-10-20T12:01:21.229Z,78.94
2022-10-20T12:04:29.433Z,78.96
2022-10-20T12:07:30.226Z,78.95
2022-10-20T12:10:25.748Z,79.48
2022-10-20T12:13:28.603Z,79.64
2022-10-20T12:15:57.770Z,80.06
2022-10-20T12:18:31.863Z,80.60
2022-10-20T12:21:08.451Z,80.90
2022-10-20T12:23:53.206Z,81.13
2022-10-20T12:26:33.684Z,81.38
2022-10-20T12:29:34.211Z,81.56
2022-10-20T12:32:25.584Z,81.47
2022-10-20T12:35:00.621Z,81.53
2022-10-20T12:37:34.720Z,81.60
2022-10-20T12:40:15.385Z,81.33
2022-10-20T12:42:48.435Z,81.61
2022-10-20T12:45:36.905Z,81.69
2022-10-20T12:48:09.424Z,81.88
2022-10-20T12:50:44.972Z,81.79
2022-10-20T12:53:21.399Z,81.64
2022-10-20T12:55:59.703Z,81.82
2022-10-20T12:58:34.836Z,81.95
2022-10-20T13:01:11.449Z,81.83
2022-10-20T13:03:48.501Z,81.56
2022-10-20T13:06:30.507Z,81.25
2022-10-20T13:09:10.981Z,80.82
2022-10-20T13:11:46.768Z,80.78
2022-10-20T13:14:38.159Z,80.73
2022-10-20T13:17:18.817Z,80.71
2022-10-20T13:20:01.615Z,80.66
2022-10-20T13:22:39.293Z,80.22
2022-10-20T13:25:24.997Z,79.93
2022-10-20T13:28:08.958Z,79.43
2022-10-20T13:31:08.343Z,79.60
2022-10-20T13:34:05.948Z,79.55
2022-10-20T13:37:07.645Z,79.48
2022-10-20T13:40:30.934Z,79.61
2022-10-20T13:43:09.391Z,79.76
2022-10-20T13:49:14.583Z,79.97
2022-10-20T14:02:28.548Z,78.97
2022-10-20T14:05:13.212Z,78.59
2022-10-20T14:07:44.270Z,78.60
2022-10-20T14:10:46.336Z,78.17
2022-10-20T14:13:20.210Z,78.15
2022-10-20T14:15:53.848Z,77.99
2022-10-20T14:18:48.777Z,77.69
2022-10-20T14:21:18.681Z,77.55
2022-10-20T14:23:48.814Z,77.56
2022-10-20T14:26:21.799Z,77.65
2022-10-20T14:28:51.459Z,77.70
2022-10-20T14:31:23.549Z,77.72
2022-10-20T14:33:53.082Z,77.44
2022-10-20T14:36:28.610Z,77.25
2022-10-20T14:39:00.479Z,77.05
2022-10-20T14:41:32.111Z,76.97
2022-10-20T15:10:16.421Z,75.70
2022-10-20T15:13:05.576Z,75.60
2022-10-20T15:15:37.734Z,75.48
2022-10-20T15:18:10.305Z,75.55
2022-10-20T15:20:40.686Z,75.53
2022-10-20T15:23:27.942Z,75.57
2022-10-20T15:26:06.583Z,75.64
2022-10-20T15:28:49.984Z,75.57
2022-10-20T15:31:29.843Z,75.40
2022-10-20T15:33:59.211Z,75.45
2022-10-20T15:36:32.007Z,75.22
2022-10-20T15:39:04.465Z,75.14
2022-10-20T15:41:34.963Z,74.97
2022-10-20T15:44:11.667Z,74.98
2022-10-20T15:46:42.912Z,75.02
2022-10-20T15:49:12.055Z,75.21
2022-10-20T15:51:47.142Z,74.89
2022-10-20T15:54:18.867Z,74.06
2022-10-20T15:56:48.059Z,74.27
2022-10-20T15:59:18.241Z,74.40
2022-10-20T16:01:46.988Z,74.45
2022-10-20T16:04:26.996Z,74.35
2022-10-20T16:07:02.598Z,74.33
2022-10-20T16:09:29.248Z,74.27
2022-10-20T16:11:58.332Z,74.18
2022-10-20T16:14:27.693Z,74.21
2022-10-20T16:17:00.572Z,74.25
2022-10-20T16:19:31.334Z,74.17
2022-10-20T16:22:00.885Z,73.96
2022-10-20T16:24:30.908Z,73.95
2022-10-20T16:27:00.593Z,73.78
2022-10-20T16:29:30.772Z,73.67
2022-10-20T16:31:59.850Z,73.72
2022-10-20T16:34:29.246Z,73.85
2022-10-20T16:36:58.246Z,73.83
2022-10-20T16:39:30.032Z,73.69
2022-10-20T16:41:59.616Z,73.66
2022-10-20T16:44:30.762Z,73.52
2022-10-20T16:47:00.417Z,73.52
2022-10-20T16:49:30.418Z,73.61
2022-10-20T16:52:01.390Z,73.47
2022-10-20T16:54:31.440Z,73.43
2022-10-20T16:57:00.952Z,73.14
2022-10-20T16:59:30.242Z,73.23
2022-10-20T17:02:02.657Z,72.94
2022-10-20T17:04:32.707Z,73.00
2022-10-20T17:07:01.690Z,73.04
2022-10-20T17:09:31.837Z,73.13
2022-10-20T17:12:02.658Z,73.11
2022-10-20T17:14:33.188Z,73.07
2022-10-20T17:17:04.623Z,73.10
2022-10-20T17:19:35.929Z,72.93
2022-10-20T17:22:04.756Z,72.91
2022-10-20T17:24:34.124Z,73.05
2022-10-20T17:27:03.089Z,72.74
2022-10-20T17:29:32.848Z,72.92
2022-10-20T17:32:01.510Z,73.11
2022-10-20T17:34:31.388Z,73.22
2022-10-20T17:37:01.631Z,73.23
2022-10-20T17:39:31.470Z,73.52
2022-10-20T17:42:00.837Z,73.65
2022-10-20T17:44:31.336Z,73.84
2022-10-20T17:47:03.524Z,73.90
2022-10-20T17:49:33.482Z,74.12
2022-10-20T17:52:04.755Z,74.27
2022-10-20T17:54:35.345Z,74.27
2022-10-20T17:57:05.010Z,74.35
2022-10-20T17:59:42.394Z,74.42
2022-10-20T18:02:08.887Z,74.44
2022-10-20T18:04:40.199Z,74.54
2022-10-20T18:07:10.146Z,74.77
2022-10-20T18:09:40.775Z,74.77
2022-10-20T18:12:11.233Z,74.86
2022-10-20T18:14:40.895Z,74.85
2022-10-20T18:17:11.141Z,74.87
2022-10-20T18:19:41.415Z,74.83
2022-10-20T18:22:11.141Z,74.91
2022-10-20T18:24:42.970Z,74.98
2022-10-20T18:27:14.312Z,74.89
2022-10-20T18:29:43.886Z,74.90
2022-10-20T18:32:13.071Z,74.74
2022-10-20T18:34:43.693Z,74.77
2022-10-20T18:37:18.927Z,74.85
2022-10-20T18:39:48.496Z,74.75
2022-10-20T18:42:18.092Z,74.68
2022-10-20T18:44:47.849Z,74.77
2022-10-20T18:47:18.114Z,74.82
2022-10-20T18:49:48.004Z,74.87
2022-10-20T18:52:17.812Z,74.81
2022-10-20T18:54:47.040Z,74.80
2022-10-20T18:57:16.882Z,74.76
2022-10-20T18:59:46.254Z,74.75
2022-10-20T19:02:18.940Z,74.77
2022-10-20T19:04:47.615Z,74.68
2022-10-20T19:07:18.187Z,74.70
2022-10-20T19:09:48.465Z,74.68
2022-10-20T19:12:18.911Z,74.66
2022-10-20T19:14:48.682Z,74.63
2022-10-20T19:17:19.507Z,74.68
2022-10-20T19:19:49.584Z,74.46
2022-10-20T19:22:18.846Z,74.45
2022-10-20T19:24:48.109Z,74.40
2022-10-20T19:27:27.020Z,74.43
2022-10-20T19:29:50.080Z,74.57
2022-10-20T19:32:19.903Z,74.57
2022-10-20T19:34:49.539Z,74.51
2022-10-20T19:37:19.255Z,74.40
2022-10-20T19:39:48.266Z,74.30
2022-10-20T19:42:18.057Z,74.29
2022-10-20T19:44:47.998Z,74.30
2022-10-20T19:47:17.755Z,74.39
2022-10-20T19:49:47.568Z,74.20
2022-10-20T19:52:16.500Z,74.26
2022-10-20T19:54:46.758Z,74.26
2022-10-20T19:57:16.618Z,74.17
2022-10-20T19:59:45.870Z,74.15
2022-10-20T20:02:15.289Z,74.15
2022-10-20T20:04:44.982Z,74.15
2022-10-20T20:20:14.500Z,73.34
2022-10-20T20:22:45.749Z,73.12
2022-10-20T20:25:16.294Z,73.04
2022-10-20T20:27:47.478Z,73.01
2022-10-20T20:30:18.883Z,72.99
2022-10-20T20:32:52.110Z,72.91
2022-10-20T20:35:22.588Z,73.00
2022-10-20T20:37:53.761Z,73.02
2022-10-20T20:40:23.981Z,73.04
2022-10-20T20:42:54.909Z,73.08
2022-10-20T20:45:25.089Z,73.30
2022-10-20T20:47:56.454Z,73.16
2022-10-20T20:50:27.895Z,73.26
2022-10-20T20:52:58.921Z,73.42
2022-10-20T20:55:29.030Z,73.49
2022-10-20T20:58:00.225Z,73.56
2022-10-20T21:00:31.355Z,73.63
2022-10-20T21:03:03.810Z,73.66
2022-10-20T21:05:40.141Z,73.75
2022-10-20T21:08:11.631Z,73.86
2022-10-20T21:10:43.670Z,73.97
2022-10-20T21:13:15.896Z,74.13
2022-10-20T21:15:47.679Z,74.18
2022-10-20T21:18:18.508Z,74.23
2022-10-20T21:20:49.788Z,74.21
2022-10-20T21:23:21.763Z,74.24
2022-10-20T21:25:52.994Z,74.27
2022-10-20T21:28:23.973Z,74.30
2022-10-20T21:31:00.161Z,74.29
2022-10-20T21:33:30.949Z,74.29
2022-10-20T21:36:08.077Z,74.24
2022-10-20T21:38:38.886Z,74.26
2022-10-20T21:41:16.113Z,74.27
2022-10-20T21:43:48.425Z,74.37
2022-10-20T21:46:29.068Z,74.33
2022-10-20T21:49:11.620Z,74.26
2022-10-20T21:51:45.461Z,74.17
2022-10-20T21:56:50.487Z,74.21
2022-10-20T21:59:26.943Z,74.21
2022-10-20T22:02:01.207Z,74.14
2022-10-20T22:04:31.657Z,74.14
2022-10-20T22:07:02.269Z,74.09
2022-10-20T22:09:34.747Z,73.95
2022-10-20T22:12:06.783Z,73.92
2022-10-20T22:14:40.699Z,73.93
2022-10-20T22:17:11.610Z,73.81
2022-10-20T22:19:44.216Z,73.80
2022-10-20T22:22:15.031Z,73.89
2022-10-20T22:24:47.464Z,74.02
2022-10-20T22:27:31.402Z,74.19
2022-10-20T22:29:54.140Z,74.21
2022-10-20T22:32:24.985Z,74.24
2022-10-20T22:34:55.176Z,74.25
2022-10-20T22:37:25.103Z,74.29
2022-10-20T22:39:56.094Z,74.33
2022-10-20T22:42:26.245Z,74.26
2022-10-20T22:44:56.250Z,74.36
2022-10-20T22:47:26.540Z,74.59
2022-10-20T22:49:55.572Z,74.74
2022-10-20T22:52:24.869Z,74.81
2022-10-20T22:54:56.934Z,74.86
2022-10-20T22:57:25.708Z,74.92
2022-10-20T22:59:54.829Z,75.05
2022-10-20T23:02:23.954Z,75.14
2022-10-20T23:04:54.857Z,75.25
2022-10-20T23:07:26.328Z,75.26
2022-10-20T23:09:56.491Z,75.25
2022-10-20T23:12:27.656Z,75.34
2022-10-20T23:14:59.126Z,75.39
2022-10-20T23:17:30.454Z,75.47
2022-10-20T23:20:01.113Z,75.60
2022-10-20T23:22:33.260Z,75.73
2022-10-20T23:25:02.926Z,75.85
2022-10-20T23:27:36.082Z,75.83
2022-10-20T23:30:08.937Z,75.90
2022-10-20T23:32:38.677Z,75.96
2022-10-20T23:35:11.845Z,75.97
2022-10-20T23:37:44.260Z,76.06
2022-10-20T23:40:15.587Z,76.13
2022-10-20T23:42:46.678Z,76.16
2022-10-20T23:45:17.749Z,76.10
2022-10-20T23:47:47.359Z,76.11
2022-10-20T23:50:16.981Z,76.14
2022-10-20T23:52:46.922Z,76.17
2022-10-20T23:55:17.883Z,76.31
2022-10-20T23:57:48.810Z,76.50
